»·PEaware :: N102MR KSAN-KPSP

N102MR :: KSAN-KPSP

FLIGHT INFORMATION

Flight Status: Arrived
Operator: Privately registered:
United States
More flights under this callsign
Pilot: Michael R. (16974)
Aircraft: CESSNA 172 SKYHAWK
(C172)
More flights by this aircraft type
Origin: KSAN San Diego Intl-Lindbergh
United States
Destination: KPSP Palm Springs Intl
United States
More flights between these airports :: More routes between these airports
Route: +JLI V208 TRM
File this flight plan on PilotEdge
Remarks:
Altitude:
(Current/Filed)
9,000ft
Speed:
(Current/Filed)
105kts
Departed: 25-Nov-17 10:39 PM
Arrived: 25-Nov-17 11:45 PM
Distance/Time
Traveled:
74nm/1:06
Distance/Time
To Go:
Arrived

Flight Plot

Page will automatically refresh every two minutes.


Map Options




Map Legend


Flown Route
Filed Route
Departure Airport
Arrival Airport
Navaid (VOR, NDB)
Fix

Horizontal Profiles

Position Reports

Time Latitude Longitude Heading Altitude Ground
Speed
25-Nov-17 22:24 32.732375 -117.176651 187 22ft 0kts
25-Nov-17 22:25 32.732375 -117.176651 187 22ft 0kts
25-Nov-17 22:26 32.732375 -117.176651 187 22ft 0kts
25-Nov-17 22:27 32.732375 -117.176651 187 22ft 0kts
25-Nov-17 22:28 32.732375 -117.176651 187 22ft 0kts
25-Nov-17 22:29 32.732375 -117.176651 187 22ft 0kts
25-Nov-17 22:30 32.732375 -117.176651 187 22ft 0kts
25-Nov-17 22:31 32.732375 -117.176651 187 22ft 0kts
25-Nov-17 22:32 32.732375 -117.176651 187 22ft 0kts
25-Nov-17 22:33 32.732375 -117.176651 187 22ft 0kts
25-Nov-17 22:34 32.732375 -117.176651 187 22ft 0kts
25-Nov-17 22:35 32.732375 -117.176651 187 22ft 0kts
25-Nov-17 22:36 32.732375 -117.176651 187 22ft 0kts
25-Nov-17 22:37 32.732375 -117.176651 187 22ft 0kts
25-Nov-17 22:38 32.732375 -117.176651 187 22ft 0kts
25-Nov-17 22:39 32.732375 -117.176651 187 22ft 0kts
25-Nov-17 22:40 32.731359 -117.176039 133 21ft 11kts
25-Nov-17 22:41 32.730879 -117.175425 139 21ft 0kts
25-Nov-17 22:42 32.730879 -117.175425 139 21ft 0kts
25-Nov-17 22:43 32.730221 -117.175895 286 20ft 0kts
25-Nov-17 22:44 32.733709 -117.187836 322 292ft 61kts
25-Nov-17 22:45 32.749464 -117.202542 324 816ft 87kts
25-Nov-17 22:46 32.770842 -117.220788 324 1329ft 97kts
25-Nov-17 22:47 32.792510 -117.238811 324 1872ft 97kts
25-Nov-17 22:48 32.817584 -117.259531 324 1987ft 118kts
25-Nov-17 22:49 32.842189 -117.282311 322 2422ft 110kts
25-Nov-17 22:50 32.864742 -117.303818 321 3003ft 96kts
25-Nov-17 22:51 32.884504 -117.322203 321 3579ft 85kts
25-Nov-17 22:52 32.902769 -117.339146 320 4165ft 82kts
25-Nov-17 22:53 32.920356 -117.354873 320 4721ft 77kts
25-Nov-17 22:54 32.937303 -117.349954 88 5208ft 94kts
25-Nov-17 22:55 32.944247 -117.320675 61 5708ft 93kts
25-Nov-17 22:56 32.952487 -117.290476 75 6035ft 110kts
25-Nov-17 22:57 32.961652 -117.253044 74 6021ft 120kts
25-Nov-17 22:58 32.970817 -117.217715 71 6219ft 108kts
25-Nov-17 22:59 32.979439 -117.185465 74 6701ft 97kts
25-Nov-17 23:00 32.987278 -117.155977 74 7171ft 91kts
25-Nov-17 23:01 32.994989 -117.126930 75 7576ft 92kts
25-Nov-17 23:02 33.002675 -117.097939 75 7950ft 94kts
25-Nov-17 23:03 33.010891 -117.066939 75 8271ft 101kts
25-Nov-17 23:04 33.019547 -117.034261 75 8583ft 105kts
25-Nov-17 23:05 33.028399 -117.000820 75 8892ft 106kts
25-Nov-17 23:06 33.037509 -116.966313 75 9034ft 118kts
25-Nov-17 23:07 33.047843 -116.927199 75 9029ft 125kts
25-Nov-17 23:08 33.058217 -116.887888 75 9029ft 123kts
25-Nov-17 23:09 33.068530 -116.848760 75 9029ft 123kts
25-Nov-17 23:10 33.078815 -116.809692 75 9029ft 123kts
25-Nov-17 23:11 33.087372 -116.777146 75 9029ft 123kts
25-Nov-17 23:12 33.099304 -116.731591 74 9029ft 123kts
25-Nov-17 23:13 33.109222 -116.695499 74 9027ft 122kts
25-Nov-17 23:14 33.119338 -116.656663 73 9028ft 122kts
25-Nov-17 23:15 33.129981 -116.618007 72 9028ft 122kts
25-Nov-17 23:16 33.139995 -116.586434 43 9024ft 123kts
25-Nov-17 23:17 33.166908 -116.561390 35 9028ft 123kts
25-Nov-17 23:18 33.194501 -116.537019 35 9028ft 123kts
25-Nov-17 23:19 33.221766 -116.513181 34 9027ft 119kts
25-Nov-17 23:20 33.252802 -116.486108 34 9024ft 118kts
25-Nov-17 23:21 33.279673 -116.462642 33 8964ft 118kts
25-Nov-17 23:22 33.301707 -116.443435 33 8964ft 116kts
25-Nov-17 23:23 33.327757 -116.420696 33 8964ft 115kts
25-Nov-17 23:24 33.353811 -116.398273 32 8965ft 115kts
25-Nov-17 23:25 33.379938 -116.376171 32 8965ft 115kts
25-Nov-17 23:26 33.405841 -116.353678 33 8965ft 115kts
25-Nov-17 23:27 33.431545 -116.331196 33 8989ft 112kts
25-Nov-17 23:28 33.456161 -116.309644 33 9009ft 112kts
25-Nov-17 23:29 33.481125 -116.286773 34 8924ft 118kts
25-Nov-17 23:30 33.509083 -116.262225 33 8138ft 127kts
25-Nov-17 23:31 33.537808 -116.237249 33 7336ft 128kts
25-Nov-17 23:32 33.567104 -116.211755 33 6169ft 136kts
25-Nov-17 23:33 33.596956 -116.185750 32 4763ft 126kts
25-Nov-17 23:34 33.624129 -116.162101 32 4021ft 117kts
25-Nov-17 23:35 33.617496 -116.127068 126 4022ft 125kts
25-Nov-17 23:36 33.593205 -116.108032 218 4019ft 112kts
25-Nov-17 23:37 33.603704 -116.134793 322 4022ft 111kts
25-Nov-17 23:38 33.627302 -116.158140 307 4022ft 111kts
25-Nov-17 23:39 33.645771 -116.187933 304 4021ft 111kts
25-Nov-17 23:40 33.663643 -116.218302 304 4021ft 111kts
25-Nov-17 23:41 33.681461 -116.248728 304 4021ft 111kts
25-Nov-17 23:42 33.699506 -116.279573 304 3915ft 117kts
25-Nov-17 23:43 33.718512 -116.312044 305 3618ft 119kts
25-Nov-17 23:44 33.737359 -116.344248 304 3399ft 116kts
25-Nov-17 23:45 33.755355 -116.376008 302 3164ft 115kts
25-Nov-17 23:46 33.772693 -116.408143 302 2919ft 113kts
25-Nov-17 23:47 33.790898 -116.438826 297 2680ft 113kts
25-Nov-17 23:48 33.804260 -116.472592 298 1625ft 110kts
25-Nov-17 23:49 33.818948 -116.498035 322 560ft 75kts
25-Nov-17 23:50 33.827648 -116.505850 324 417ft 21kts
25-Nov-17 23:51 33.828664 -116.510414 275 428ft 17kts
25-Nov-17 23:52 33.829006 -116.511703 271 432ft 0kts
25-Nov-17 23:53 33.829006 -116.511703 271 432ft 0kts
25-Nov-17 23:54 33.829006 -116.511703 271 432ft 0kts
25-Nov-17 23:55 33.829006 -116.511703 271 432ft 0kts
25-Nov-17 23:56 33.829006 -116.511703 271 432ft 0kts
25-Nov-17 23:57 33.829006 -116.511703 271 432ft 0kts
25-Nov-17 23:58 33.829006 -116.511703 271 432ft 0kts
25-Nov-17 23:59 33.829006 -116.511703 271 432ft 0kts
26-Nov-17 00:00 33.829006 -116.511703 271 432ft 0kts
26-Nov-17 00:01 33.829006 -116.511703 271 432ft 0kts
26-Nov-17 00:02 33.829006 -116.511703 271 432ft 0kts

Navigation Log

Ident Type
1. KSAN Airport
2. JLI Navaid
3. WARNE Fix
4. TRM Navaid
5. KPSP Airport